createdAt,value
2023-03-20T00:01:55.609Z,11.37
2023-03-20T00:04:23.941Z,12.33
2023-03-20T00:06:52.216Z,12.53
2023-03-20T00:09:20.490Z,12.23
2023-03-20T00:11:49.470Z,11.80
2023-03-20T00:14:20.479Z,11.30
2023-03-20T00:16:49.975Z,11.87
2023-03-20T00:19:19.265Z,11.87
2023-03-20T00:21:47.949Z,11.13
2023-03-20T00:24:16.802Z,12.30
2023-03-20T00:26:45.606Z,11.10
2023-03-20T00:29:16.860Z,11.33
2023-03-20T00:31:46.591Z,12.37
2023-03-20T00:34:19.583Z,10.90
2023-03-20T00:36:47.843Z,11.87
2023-03-20T00:39:16.195Z,11.87
2023-03-20T00:41:45.205Z,12.07
2023-03-20T00:44:23.134Z,12.40
2023-03-20T00:46:54.705Z,12.40
2023-03-20T00:49:24.129Z,12.47
2023-03-20T00:51:52.425Z,12.97
2023-03-20T00:54:20.770Z,12.03
2023-03-20T00:56:51.378Z,12.07
2023-03-20T00:59:21.604Z,11.60
2023-03-20T01:01:49.899Z,12.50
2023-03-20T01:04:20.814Z,12.30
2023-03-20T01:06:49.161Z,11.83
2023-03-20T01:09:17.490Z,11.30
2023-03-20T01:11:45.987Z,12.00
2023-03-20T01:14:16.274Z,11.47
2023-03-20T01:16:44.760Z,12.27
2023-03-20T01:19:14.231Z,11.63
2023-03-20T01:21:44.122Z,11.40
2023-03-20T01:24:12.542Z,11.93
2023-03-20T01:26:42.208Z,11.83
2023-03-20T01:29:17.758Z,12.40
2023-03-20T01:31:46.491Z,13.17
2023-03-20T01:34:16.388Z,12.00
2023-03-20T01:36:47.921Z,11.63
2023-03-20T01:39:16.205Z,12.10
2023-03-20T01:41:45.367Z,12.10
2023-03-20T01:44:19.609Z,12.33
2023-03-20T01:46:48.537Z,12.33
2023-03-20T01:49:53.878Z,12.90
2023-03-20T01:52:23.594Z,14.47
2023-03-20T01:54:51.868Z,13.37
2023-03-20T01:57:21.853Z,12.90
2023-03-20T01:59:51.806Z,12.77
2023-03-20T02:02:22.607Z,13.43
2023-03-20T02:04:53.099Z,12.93
2023-03-20T02:07:23.390Z,12.63
2023-03-20T02:09:51.736Z,13.20
2023-03-20T02:12:20.015Z,13.20
2023-03-20T02:14:48.335Z,12.60
2023-03-20T02:17:16.823Z,12.60
2023-03-20T02:19:49.578Z,12.13
2023-03-20T02:22:41.811Z,12.97
2023-03-20T02:25:42.519Z,12.20
2023-03-20T02:28:33.630Z,13.27
2023-03-20T02:31:45.026Z,13.47
2023-03-20T02:34:34.308Z,11.33
2023-03-20T02:37:24.822Z,13.20
2023-03-20T02:40:00.918Z,12.10
2023-03-20T02:42:33.938Z,13.27
2023-03-20T02:45:05.553Z,11.77
2023-03-20T02:47:36.947Z,12.00
2023-03-20T02:50:09.959Z,12.33
2023-03-20T02:52:42.876Z,12.60
2023-03-20T02:55:16.179Z,12.27
2023-03-20T02:57:49.317Z,13.33
2023-03-20T03:00:20.238Z,12.17
2023-03-20T03:02:50.334Z,13.13
2023-03-20T03:05:20.822Z,11.67
2023-03-20T03:07:51.913Z,13.90
2023-03-20T03:10:22.450Z,12.30
2023-03-20T03:12:50.894Z,12.63
2023-03-20T03:15:32.775Z,12.37
2023-03-20T03:18:01.130Z,11.67
2023-03-20T03:20:31.374Z,11.63
2023-03-20T03:23:02.072Z,11.33
2023-03-20T03:25:31.508Z,11.67
2023-03-20T03:28:03.518Z,11.07
2023-03-20T03:30:32.904Z,11.57
2023-03-20T03:33:11.552Z,11.30
2023-03-20T03:35:40.032Z,12.00
2023-03-20T03:38:18.465Z,11.73
2023-03-20T03:40:47.325Z,11.97
2023-03-20T03:43:18.590Z,10.57
2023-03-20T03:45:48.028Z,11.53
2023-03-20T03:48:17.392Z,11.70
2023-03-20T03:50:48.893Z,11.67
2023-03-20T03:53:20.116Z,10.77
2023-03-20T03:55:51.102Z,12.00
2023-03-20T03:58:20.579Z,11.30
2023-03-20T04:00:50.656Z,10.53
2023-03-20T04:03:19.338Z,12.03
2023-03-20T04:05:47.719Z,11.50
2023-03-20T04:08:16.358Z,11.80
2023-03-20T04:10:46.098Z,11.40
2023-03-20T04:13:14.338Z,11.60
2023-03-20T04:15:42.581Z,11.80
2023-03-20T04:18:11.227Z,12.00
2023-03-20T04:20:39.511Z,12.00
2023-03-20T04:23:07.761Z,11.97
2023-03-20T04:25:36.275Z,12.90
2023-03-20T04:28:06.421Z,14.00
2023-03-20T04:30:34.701Z,13.10
2023-03-20T04:33:02.990Z,13.17
2023-03-20T04:35:31.274Z,13.77
2023-03-20T04:37:59.540Z,13.63
2023-03-20T04:40:28.557Z,12.87
2023-03-20T04:42:56.824Z,13.30
2023-03-20T04:45:26.454Z,13.53
2023-03-20T04:47:54.868Z,12.00
2023-03-20T04:50:23.196Z,13.00
2023-03-20T04:52:51.499Z,13.50
2023-03-20T04:55:19.864Z,13.13
2023-03-20T04:57:48.153Z,12.77
2023-03-20T05:00:17.537Z,13.60
2023-03-20T05:02:47.195Z,13.97
2023-03-20T05:05:15.513Z,13.00
2023-03-20T05:07:43.885Z,13.30
2023-03-20T05:10:12.724Z,13.80
2023-03-20T05:12:40.978Z,13.37
2023-03-20T05:15:10.455Z,13.33
2023-03-20T05:17:38.803Z,14.13
2023-03-20T05:20:09.693Z,14.03
2023-03-20T05:22:37.942Z,13.47
2023-03-20T05:25:07.223Z,13.80
2023-03-20T05:27:35.788Z,14.80
2023-03-20T05:30:04.510Z,14.50
2023-03-20T05:32:32.868Z,15.17
2023-03-20T05:35:01.389Z,14.57
2023-03-20T05:37:31.134Z,14.00
2023-03-20T05:39:59.383Z,14.07
2023-03-20T05:42:27.630Z,14.07
2023-03-20T05:44:55.887Z,14.50
2023-03-20T05:47:26.132Z,14.10
2023-03-20T05:49:54.597Z,14.57
2023-03-20T05:52:22.901Z,15.13
2023-03-20T05:54:52.569Z,14.30
2023-03-20T05:57:20.902Z,16.10
2023-03-20T05:59:49.232Z,15.13
2023-03-20T06:02:17.654Z,15.30
2023-03-20T06:04:46.348Z,16.60
2023-03-20T06:07:14.731Z,17.17
2023-03-20T06:09:43.016Z,16.77
2023-03-20T06:12:12.739Z,16.30
2023-03-20T06:14:41.047Z,16.87
2023-03-20T06:17:09.367Z,17.30
2023-03-20T06:19:38.804Z,16.77
2023-03-20T06:22:07.074Z,17.47
2023-03-20T06:24:36.060Z,16.87
2023-03-20T06:27:04.358Z,17.77
2023-03-20T06:29:34.202Z,17.20
2023-03-20T06:32:02.470Z,16.63
2023-03-20T06:34:31.845Z,17.53
2023-03-20T06:37:00.187Z,18.17
2023-03-20T06:39:29.036Z,17.23
2023-03-20T06:41:57.430Z,14.83
2023-03-20T06:44:27.125Z,17.33
2023-03-20T06:46:56.979Z,17.73
2023-03-20T06:49:25.607Z,16.87
2023-03-20T06:51:53.939Z,17.03
2023-03-20T06:54:22.426Z,17.30
2023-03-20T06:56:50.705Z,17.87
2023-03-20T06:59:19.271Z,17.87
2023-03-20T07:01:47.620Z,18.63
2023-03-20T07:04:17.548Z,18.53
2023-03-20T07:06:46.023Z,18.47
2023-03-20T07:09:14.357Z,17.57
2023-03-20T07:11:43.008Z,17.03
2023-03-20T07:14:11.379Z,17.50
2023-03-20T07:16:39.705Z,17.53
2023-03-20T07:19:08.033Z,18.23
2023-03-20T07:21:39.826Z,17.60
2023-03-20T07:24:08.500Z,17.30
2023-03-20T07:26:36.938Z,17.43
2023-03-20T07:29:05.327Z,16.67
2023-03-20T07:31:33.702Z,17.73
2023-03-20T07:34:02.069Z,16.93
2023-03-20T07:36:30.475Z,18.57
2023-03-20T07:39:00.183Z,19.30
2023-03-20T07:41:28.535Z,18.23
2023-03-20T07:43:56.929Z,18.20
2023-03-20T07:46:25.695Z,18.47
2023-03-20T07:48:54.177Z,17.97
2023-03-20T07:51:22.459Z,18.30
2023-03-20T07:53:51.024Z,18.43
2023-03-20T07:56:21.404Z,18.47
2023-03-20T07:58:52.733Z,20.13
2023-03-20T08:01:21.114Z,20.07
2023-03-20T08:03:49.816Z,20.37
2023-03-20T08:06:18.166Z,21.00
2023-03-20T08:08:46.591Z,20.53
2023-03-20T08:11:14.966Z,21.43
2023-03-20T08:13:44.703Z,23.30
2023-03-20T08:16:13.021Z,21.97
2023-03-20T08:18:42.511Z,21.80
2023-03-20T08:21:10.991Z,21.53
2023-03-20T08:23:39.212Z,22.60
2023-03-20T08:26:07.659Z,23.10
2023-03-20T08:28:47.209Z,24.57
2023-03-20T08:31:17.907Z,22.73
2023-03-20T08:33:46.520Z,20.97
2023-03-20T08:36:15.641Z,23.27
2023-03-20T08:38:44.064Z,21.63
2023-03-20T08:41:12.311Z,22.97
2023-03-20T08:43:40.585Z,22.57
2023-03-20T08:46:08.938Z,22.50
2023-03-20T08:48:38.665Z,22.30
2023-03-20T08:51:07.558Z,23.43
2023-03-20T08:53:35.847Z,24.20
2023-03-20T08:56:04.125Z,22.00
2023-03-20T08:58:32.361Z,23.20
2023-03-20T09:01:05.493Z,25.13
2023-03-20T09:03:33.788Z,22.67
2023-03-20T09:06:03.573Z,23.73
2023-03-20T09:08:32.138Z,24.23
2023-03-20T09:11:00.651Z,23.30
2023-03-20T09:13:28.874Z,23.77
2023-03-20T09:15:57.310Z,25.43
2023-03-20T09:18:25.804Z,24.53
2023-03-20T09:20:54.118Z,24.77
2023-03-20T09:23:23.864Z,25.80
2023-03-20T09:25:52.122Z,24.67
2023-03-20T09:28:20.692Z,25.77
2023-03-20T09:30:49.003Z,25.87
2023-03-20T09:33:18.622Z,25.10
2023-03-20T09:35:47.073Z,26.53
2023-03-20T09:38:15.603Z,25.77
2023-03-20T09:40:52.242Z,26.40
2023-03-20T09:43:28.649Z,27.33
2023-03-20T09:46:01.342Z,27.50
2023-03-20T09:48:32.023Z,26.00
2023-03-20T09:51:02.847Z,27.57
2023-03-20T09:53:32.928Z,27.00
2023-03-20T09:56:02.589Z,26.67
2023-03-20T09:58:32.570Z,25.87
2023-03-20T10:01:01.658Z,25.10
2023-03-20T10:03:30.924Z,24.23
2023-03-20T10:06:01.705Z,25.10
2023-03-20T10:08:31.933Z,26.50
2023-03-20T10:11:06.176Z,25.93
2023-03-20T10:13:52.997Z,26.20
2023-03-20T10:16:25.038Z,24.87
2023-03-20T10:18:58.252Z,24.67
2023-03-20T10:21:29.206Z,24.83
2023-03-20T10:24:01.007Z,23.77
2023-03-20T10:26:30.760Z,25.50
2023-03-20T10:28:59.609Z,24.30
2023-03-20T10:31:34.660Z,24.67
2023-03-20T10:34:19.052Z,25.47
2023-03-20T10:36:55.995Z,22.33
2023-03-20T10:39:31.677Z,22.93
2023-03-20T10:42:03.418Z,23.30
2023-03-20T10:44:34.320Z,23.00
2023-03-20T10:47:03.282Z,21.03
2023-03-20T10:49:34.923Z,22.67
2023-03-20T10:52:04.724Z,19.57
2023-03-20T10:54:34.126Z,20.17
2023-03-20T10:57:04.078Z,19.67
2023-03-20T10:59:35.473Z,20.67
2023-03-20T11:02:03.762Z,19.50
2023-03-20T11:04:32.022Z,16.70
2023-03-20T11:07:02.794Z,16.43
2023-03-20T11:09:32.681Z,16.43
2023-03-20T11:12:02.699Z,16.47
2023-03-20T11:14:36.376Z,15.97
2023-03-20T11:17:05.000Z,16.10
2023-03-20T11:19:34.620Z,17.60
2023-03-20T11:22:08.294Z,18.53
2023-03-20T11:24:38.130Z,18.13
2023-03-20T11:27:08.039Z,18.07
2023-03-20T11:29:37.910Z,18.97
2023-03-20T11:32:18.261Z,16.60
2023-03-20T11:34:46.654Z,16.83
2023-03-20T11:37:26.032Z,17.13
2023-03-20T11:40:01.042Z,18.40
2023-03-20T11:42:30.479Z,17.90
2023-03-20T11:45:01.439Z,18.00
2023-03-20T11:47:30.545Z,17.50
2023-03-20T11:49:59.639Z,16.60
2023-03-20T11:52:29.628Z,16.40
2023-03-20T11:54:58.503Z,17.17
2023-03-20T11:57:34.798Z,16.47
2023-03-20T12:00:06.711Z,17.33
2023-03-20T12:02:35.084Z,16.07
2023-03-20T12:05:03.448Z,14.53
2023-03-20T12:07:32.317Z,14.47
2023-03-20T12:10:01.223Z,14.63
2023-03-20T12:12:37.000Z,14.70
2023-03-20T12:15:09.747Z,14.93
2023-03-20T12:17:42.574Z,14.57
2023-03-20T12:20:29.377Z,14.57
2023-03-20T12:23:01.721Z,14.80
2023-03-20T12:25:31.372Z,14.77
2023-03-20T12:28:04.399Z,15.37
2023-03-20T12:30:40.128Z,14.10
2023-03-20T12:33:09.900Z,14.97
2023-03-20T12:35:39.140Z,16.17
2023-03-20T12:38:12.511Z,16.10
2023-03-20T12:40:43.650Z,15.60
2023-03-20T12:43:15.278Z,16.13
2023-03-20T12:45:48.617Z,15.90
2023-03-20T12:48:34.817Z,15.50
2023-03-20T12:51:05.201Z,16.20
2023-03-20T12:53:40.804Z,16.83
2023-03-20T12:56:16.605Z,18.07
2023-03-20T12:58:46.445Z,18.03
2023-03-20T13:01:18.539Z,19.40
2023-03-20T13:03:56.542Z,18.80
2023-03-20T13:06:29.385Z,22.70
2023-03-20T13:09:26.648Z,26.13
2023-03-20T13:11:58.516Z,17.37
2023-03-20T13:14:28.887Z,17.33
2023-03-20T13:17:00.123Z,17.43
2023-03-20T13:19:29.917Z,17.47
2023-03-20T13:22:00.159Z,17.43
2023-03-20T13:24:38.304Z,16.70
2023-03-20T13:27:24.419Z,17.47
2023-03-20T13:29:55.051Z,17.43
2023-03-20T13:32:29.453Z,18.37
2023-03-20T13:35:10.140Z,17.50
2023-03-20T13:37:39.237Z,16.93
2023-03-20T13:40:13.054Z,16.27
2023-03-20T13:42:44.250Z,14.93
2023-03-20T13:45:25.746Z,15.80
2023-03-20T13:47:56.027Z,15.67
2023-03-20T13:50:33.986Z,16.13
2023-03-20T13:53:05.026Z,17.87
2023-03-20T13:55:37.219Z,17.43
2023-03-20T13:58:12.532Z,17.50
2023-03-20T14:00:42.631Z,17.57
2023-03-20T14:03:19.264Z,17.90
2023-03-20T14:05:47.895Z,16.97
2023-03-20T14:08:36.959Z,17.90
2023-03-20T14:11:38.609Z,16.93
2023-03-20T14:14:09.848Z,17.07
2023-03-20T14:16:38.064Z,17.57
2023-03-20T14:19:10.586Z,17.63
2023-03-20T14:21:40.474Z,17.73
2023-03-20T14:24:09.449Z,18.50
2023-03-20T14:26:38.436Z,17.33
2023-03-20T14:29:22.756Z,17.97
2023-03-20T14:31:52.324Z,18.63
2023-03-20T14:34:24.784Z,17.60
2023-03-20T14:36:57.693Z,18.00
2023-03-20T14:39:36.249Z,16.93
2023-03-20T14:42:17.987Z,17.87
2023-03-20T14:44:51.978Z,17.27
2023-03-20T14:47:25.831Z,19.07
2023-03-20T14:49:57.045Z,21.13
2023-03-20T14:52:33.483Z,20.13
2023-03-20T14:55:17.147Z,19.97
2023-03-20T14:57:56.081Z,21.20
2023-03-20T15:00:26.010Z,20.43
2023-03-20T15:02:55.173Z,22.27
2023-03-20T15:05:29.442Z,20.93
2023-03-20T15:07:57.913Z,23.63
2023-03-20T15:10:26.602Z,22.00
2023-03-20T15:12:55.745Z,24.40
2023-03-20T15:15:25.929Z,23.37
2023-03-20T15:17:54.177Z,24.27
2023-03-20T15:20:23.534Z,25.27
2023-03-20T15:22:56.337Z,25.67
2023-03-20T15:25:29.385Z,26.30
2023-03-20T15:27:57.604Z,24.23
2023-03-20T15:30:25.956Z,23.53
2023-03-20T15:32:54.871Z,23.90
2023-03-20T15:35:24.405Z,24.17
2023-03-20T15:37:54.214Z,24.93
2023-03-20T15:40:24.927Z,25.37
2023-03-20T15:42:57.580Z,25.67
2023-03-20T15:45:28.200Z,26.83
2023-03-20T15:48:03.324Z,26.77
2023-03-20T15:50:34.351Z,24.87
2023-03-20T15:53:04.231Z,25.97
2023-03-20T15:55:32.506Z,27.20
2023-03-20T15:58:01.903Z,26.40
2023-03-20T16:00:31.528Z,25.80
2023-03-20T16:03:00.585Z,28.50
2023-03-20T16:05:29.540Z,31.30
2023-03-20T16:07:57.794Z,28.50
2023-03-20T16:10:30.391Z,28.77
2023-03-20T16:12:58.684Z,29.53
2023-03-20T16:15:29.827Z,29.40
2023-03-20T16:18:00.620Z,29.00
2023-03-20T16:20:29.916Z,28.53
2023-03-20T16:23:03.417Z,32.20
2023-03-20T16:25:33.084Z,34.60
2023-03-20T16:28:01.418Z,33.57
2023-03-20T16:30:32.290Z,32.57
2023-03-20T16:33:01.582Z,73.27
2023-03-20T16:35:32.483Z,48.07
2023-03-20T16:38:01.613Z,101.60
2023-03-20T16:40:34.009Z,60.70
2023-03-20T16:43:11.650Z,42.87
2023-03-20T16:45:44.042Z,41.03
2023-03-20T16:48:29.205Z,34.83
2023-03-20T16:50:59.412Z,35.10
2023-03-20T16:53:30.000Z,33.63
2023-03-20T16:55:59.962Z,33.03
2023-03-20T16:58:30.179Z,34.83
2023-03-20T17:01:02.560Z,33.43
2023-03-20T17:03:31.700Z,34.03
2023-03-20T17:06:00.929Z,33.53
2023-03-20T17:08:31.568Z,32.27
2023-03-20T17:11:04.600Z,32.70
2023-03-20T17:13:32.825Z,84.80
2023-03-20T17:16:02.057Z,44.67
2023-03-20T17:18:30.411Z,274.47
2023-03-20T17:20:58.677Z,146.50
2023-03-20T17:23:27.046Z,105.00
2023-03-20T17:25:55.350Z,64.57
2023-03-20T17:28:25.609Z,38.40
2023-03-20T17:30:53.886Z,36.70
2023-03-20T17:33:22.303Z,35.83
2023-03-20T17:35:50.690Z,35.97
2023-03-20T17:38:21.462Z,37.87
2023-03-20T17:40:49.997Z,37.37
2023-03-20T17:43:18.537Z,36.60
2023-03-20T17:45:48.622Z,38.43
2023-03-20T17:48:18.043Z,37.40
2023-03-20T17:50:46.467Z,37.43
2023-03-20T17:53:18.701Z,38.53
2023-03-20T17:55:47.002Z,38.27
2023-03-20T17:58:16.848Z,42.63
2023-03-20T18:00:45.478Z,41.20
2023-03-20T18:03:15.431Z,40.53
2023-03-20T18:05:43.824Z,41.37
2023-03-20T18:08:14.970Z,42.17
2023-03-20T18:10:43.496Z,42.60
2023-03-20T18:13:11.768Z,43.43
2023-03-20T18:15:40.433Z,44.27
2023-03-20T18:18:09.068Z,67.87
2023-03-20T18:20:39.646Z,66.97
2023-03-20T18:23:07.990Z,57.93
2023-03-20T18:25:36.314Z,62.37
2023-03-20T18:28:06.721Z,58.30
2023-03-20T18:30:36.222Z,56.87
2023-03-20T18:33:05.292Z,60.33
2023-03-20T18:35:33.682Z,68.80
2023-03-20T18:38:03.412Z,72.20
2023-03-20T18:40:32.784Z,71.17
2023-03-20T18:43:01.236Z,64.70
2023-03-20T18:45:30.243Z,61.80
2023-03-20T18:47:58.913Z,57.33
2023-03-20T18:50:28.280Z,53.37
2023-03-20T18:52:57.310Z,47.73
2023-03-20T18:55:27.541Z,50.70
2023-03-20T18:57:56.053Z,45.03
2023-03-20T19:00:27.134Z,43.33
2023-03-20T19:02:56.321Z,41.50
2023-03-20T19:05:25.017Z,41.43
2023-03-20T19:07:53.453Z,43.07
2023-03-20T19:10:30.071Z,43.10
2023-03-20T19:12:58.452Z,43.40
2023-03-20T19:15:27.374Z,44.00
2023-03-20T19:17:55.819Z,43.17
2023-03-20T19:20:42.277Z,42.20
2023-03-20T19:23:11.119Z,43.43
2023-03-20T19:25:41.065Z,44.30
2023-03-20T19:28:16.754Z,42.30
2023-03-20T19:30:45.577Z,41.00
2023-03-20T19:33:13.869Z,43.57
2023-03-20T19:36:01.342Z,43.27
2023-03-20T19:38:30.483Z,40.43
2023-03-20T19:41:00.366Z,41.00
2023-03-20T19:43:30.161Z,41.83
2023-03-20T19:45:59.361Z,43.60
2023-03-20T19:48:43.318Z,43.40
2023-03-20T19:51:18.157Z,44.80
2023-03-20T19:53:46.612Z,42.73
2023-03-20T19:56:17.014Z,43.63
2023-03-20T19:58:45.361Z,40.40
2023-03-20T20:01:17.150Z,43.17
2023-03-20T20:03:46.100Z,42.63
2023-03-20T20:06:14.746Z,42.93
2023-03-20T20:08:48.468Z,43.20
2023-03-20T20:11:18.784Z,40.40
2023-03-20T20:14:04.810Z,43.27
2023-03-20T20:16:35.813Z,42.87
2023-03-20T20:19:04.140Z,41.13
2023-03-20T20:22:17.113Z,42.33
2023-03-20T20:24:20.791Z,44.33
2023-03-20T20:26:59.963Z,44.47
2023-03-20T20:29:31.679Z,44.03
2023-03-20T20:32:01.097Z,42.87
2023-03-20T20:38:02.815Z,35.87
2023-03-20T20:40:07.436Z,34.60
2023-03-20T20:42:38.322Z,34.07
2023-03-20T20:45:07.750Z,32.90
2023-03-20T20:47:36.147Z,29.10
2023-03-20T20:50:05.101Z,29.03
2023-03-20T20:52:36.156Z,29.20
2023-03-20T20:55:21.761Z,28.10
2023-03-20T20:57:52.740Z,29.53
2023-03-20T21:00:27.543Z,27.07
2023-03-20T21:02:59.900Z,27.17
2023-03-20T21:05:28.280Z,28.73
2023-03-20T21:07:57.893Z,29.07
2023-03-20T21:10:26.380Z,29.67
2023-03-20T21:12:59.818Z,30.17
2023-03-20T21:15:28.437Z,31.77
2023-03-20T21:18:01.771Z,32.23
2023-03-20T21:20:30.666Z,33.33
2023-03-20T21:23:07.087Z,33.00
2023-03-20T21:25:40.503Z,33.80
2023-03-20T21:28:11.480Z,32.67
2023-03-20T21:30:54.441Z,33.07
2023-03-20T21:33:30.363Z,31.60
2023-03-20T21:35:58.699Z,32.03
2023-03-20T21:39:01.857Z,31.33
2023-03-20T21:41:15.604Z,31.90
2023-03-20T21:43:47.207Z,32.77
2023-03-20T21:52:41.503Z,32.73
2023-03-20T21:55:37.061Z,33.67
2023-03-20T21:58:21.387Z,34.60
2023-03-20T22:03:14.116Z,24.17
2023-03-20T22:06:25.359Z,22.53
2023-03-20T22:12:07.870Z,21.20
2023-03-20T22:17:53.077Z,20.33
2023-03-20T22:26:18.133Z,23.70
2023-03-20T22:31:48.257Z,23.47
2023-03-20T22:42:51.437Z,22.53
2023-03-20T22:45:14.163Z,29.03
2023-03-20T22:47:42.892Z,29.70
2023-03-20T22:50:12.838Z,29.63
2023-03-20T22:52:49.047Z,31.83
2023-03-20T22:55:18.283Z,32.90
2023-03-20T22:57:59.992Z,35.53
2023-03-20T23:00:34.764Z,33.33
2023-03-20T23:03:19.582Z,34.73
2023-03-20T23:05:54.105Z,33.57
2023-03-20T23:08:22.432Z,35.13
2023-03-20T23:10:51.385Z,33.57
2023-03-20T23:13:22.274Z,35.63
2023-03-20T23:15:51.692Z,35.00
2023-03-20T23:18:19.953Z,37.83
2023-03-20T23:20:48.228Z,37.47
2023-03-20T23:23:17.916Z,37.70
2023-03-20T23:25:46.417Z,36.60
2023-03-20T23:28:15.025Z,36.37
2023-03-20T23:30:51.773Z,36.93
2023-03-20T23:33:24.867Z,38.23
2023-03-20T23:36:01.187Z,38.20
2023-03-20T23:38:34.798Z,37.63
2023-03-20T23:41:03.045Z,36.33
2023-03-20T23:43:31.602Z,34.87
2023-03-20T23:45:59.914Z,34.90
2023-03-20T23:48:28.268Z,38.03
2023-03-20T23:50:56.642Z,37.83
2023-03-20T23:53:24.945Z,35.43
2023-03-20T23:55:56.240Z,35.47
2023-03-20T23:58:24.827Z,34.90
